Time;durP1;ratioP1;P1;durP2;ratioP2;P2;SDS_P1;SDS_P2;PMS_P1;PMS_P2;Temp;Humidity;BMP_temperature;BMP_pressure;BME280_temperature;BME280_humidity;BME280_pressure;Samples;Min_cycle;Max_cycle;Signal;HPM_P1;HPM_P2
2021/09/27 00:00:54;;;;;;;9.23;8.27;;;;;;;17.86;75.76;100688.41;5044896;28;20136;-79
2021/09/27 00:03:19;;;;;;;;;;;;;;;17.74;76.90;100682.53;5040873;28;20049;-80
2021/09/27 00:05:46;;;;;;;8.18;6.93;;;;;;;17.83;75.89;100688.50;5047945;28;19912;-80
2021/09/27 00:08:12;;;;;;;8.48;7.10;;;;;;;17.87;75.63;100682.16;5026832;28;20037;-79
2021/09/27 00:11:01;;;;;;;9.23;7.18;;;;;;;17.93;75.67;100695.28;5047550;28;20098;-80
2021/09/27 00:13:33;;;;;;;7.63;6.80;;;;;;;17.91;75.86;100695.31;5043613;28;20075;-80
2021/09/27 00:15:59;;;;;;;8.60;7.10;;;;;;;17.92;75.48;100705.09;5044411;28;20040;-79
2021/09/27 00:18:26;;;;;;;8.98;7.20;;;;;;;17.90;75.51;100688.25;5046161;28;20068;-80
2021/09/27 00:20:54;;;;;;;7.32;6.55;;;;;;;17.89;75.52;100691.84;5045925;28;20033;-81
2021/09/27 00:23:20;;;;;;;7.40;6.47;;;;;;;17.88;75.78;100691.91;5036318;28;20385;-80
2021/09/27 00:25:46;;;;;;;8.77;7.30;;;;;;;17.88;76.00;100690.09;5045040;28;20049;-80
2021/09/27 00:28:13;;;;;;;8.50;6.88;;;;;;;17.90;76.14;100693.59;5045223;28;20400;-79
2021/09/27 00:30:38;;;;;;;8.65;6.65;;;;;;;17.92;75.97;100696.19;5046676;28;20040;-79
2021/09/27 00:33:04;;;;;;;9.38;7.32;;;;;;;17.93;75.65;100689.94;5044105;28;20035;-79
2021/09/27 00:35:34;;;;;;;7.30;6.60;;;;;;;17.95;75.83;100694.31;5028864;28;20086;-80
2021/09/27 00:37:59;;;;;;;9.07;7.75;;;;;;;17.90;76.05;100701.59;5044496;28;20052;-80
2021/09/27 00:40:32;;;;;;;9.20;7.28;;;;;;;17.85;76.18;100697.34;5046462;28;20032;-79
2021/09/27 00:42:58;;;;;;;9.98;7.30;;;;;;;17.85;76.51;100703.53;5044327;28;20534;-79
2021/09/27 00:45:27;;;;;;;7.95;6.53;;;;;;;17.86;76.06;100701.75;5046392;28;20033;-80
2021/09/27 00:47:53;;;;;;;8.05;7.03;;;;;;;17.86;76.21;100699.06;5044079;28;20475;-79
2021/09/27 00:50:24;;;;;;;8.18;7.32;;;;;;;17.83;76.44;100693.84;5044001;28;20087;-79
2021/09/27 00:52:51;;;;;;;10.82;7.05;;;;;;;17.82;76.78;100700.97;5018242;28;20479;-79
2021/09/27 00:55:22;;;;;;;8.35;6.95;;;;;;;17.82;76.27;100706.31;5046267;28;20398;-79
2021/09/27 00:57:48;;;;;;;8.40;7.05;;;;;;;17.85;76.41;100698.22;5044741;28;20072;-79
2021/09/27 01:00:18;;;;;;;10.57;7.88;;;;;;;17.84;77.04;100715.16;5044112;28;20037;-79
2021/09/27 01:02:43;;;;;;;8.32;7.45;;;;;;;17.83;76.83;100700.03;5043828;28;20048;-80
2021/09/27 01:05:13;;;;;;;8.13;6.88;;;;;;;17.79;77.21;100705.50;5045562;28;20037;-79
2021/09/27 01:07:53;;;;;;;9.88;7.60;;;;;;;17.78;76.86;100712.63;5044649;28;20045;-79
2021/09/27 01:10:40;;;;;;;9.35;7.70;;;;;;;17.79;77.43;100710.84;5025624;28;20040;-79
2021/09/27 01:13:32;;;;;;;8.27;7.03;;;;;;;17.80;76.95;100718.84;5015821;28;20088;-79
2021/09/27 01:16:16;;;;;;;8.40;7.60;;;;;;;17.81;76.97;100727.72;5041124;28;20454;-78
2021/09/27 01:19:19;;;;;;;11.07;7.95;;;;;;;17.75;77.78;100723.44;5048980;28;20100;-78
2021/09/27 01:21:56;;;;;;;7.63;6.82;;;;;;;17.68;77.76;100727.22;5005328;28;20431;-78
2021/09/27 01:25:00;;;;;;;8.05;7.00;;;;;;;17.67;78.07;100731.69;5034769;28;20388;-78
2021/09/27 01:27:54;;;;;;;9.07;7.07;;;;;;;17.62;78.21;100730.94;5047034;28;20437;-78
2021/09/27 01:30:38;;;;;;;8.30;7.05;;;;;;;17.63;78.30;100729.16;5046668;28;20034;-78
2021/09/27 01:33:10;;;;;;;7.30;6.53;;;;;;;17.66;77.40;100726.41;5047000;28;20033;-78
2021/09/27 01:35:47;;;;;;;9.10;7.90;;;;;;;17.62;77.50;100728.28;5044140;28;20103;-78
2021/09/27 01:38:34;;;;;;;9.50;7.10;;;;;;;17.57;77.83;100724.88;5045980;28;20037;-78
2021/09/27 01:41:17;;;;;;;9.32;7.85;;;;;;;17.44;78.39;100728.88;5043411;28;20045;-78
2021/09/27 01:43:50;;;;;;;9.40;7.55;;;;;;;17.40;78.70;100735.25;5036955;28;20112;-78
2021/09/27 01:46:31;;;;;;;8.32;6.75;;;;;;;17.38;78.74;100731.75;5048211;28;20114;-77
2021/09/27 01:49:08;;;;;;;9.98;7.88;;;;;;;17.40;78.80;100730.78;5043956;28;20041;-78
2021/09/27 01:51:56;;;;;;;11.90;8.43;;;;;;;17.33;79.12;100734.53;5050995;28;20040;-78
2021/09/27 01:54:38;;;;;;;8.93;8.00;;;;;;;17.31;79.56;100734.56;5042772;28;20104;-77
2021/09/27 01:57:10;;;;;;;10.77;8.05;;;;;;;17.35;78.97;100751.38;5048724;28;20041;-78
2021/09/27 01:59:46;;;;;;;8.93;8.00;;;;;;;17.39;78.88;100737.00;5047493;28;20245;-77
2021/09/27 02:02:25;;;;;;;10.05;7.57;;;;;;;17.39;78.66;100734.34;5046710;28;20468;-78
2021/09/27 02:05:08;;;;;;;8.95;7.65;;;;;;;17.37;78.68;100746.88;5044836;28;20067;-77
2021/09/27 02:07:41;;;;;;;9.60;7.30;;;;;;;17.35;78.89;100748.72;5046851;28;20041;-77
2021/09/27 02:10:13;;;;;;;11.43;8.10;;;;;;;17.30;79.24;100748.84;5024736;28;20037;-78
2021/09/27 02:12:46;;;;;;;9.10;7.23;;;;;;;17.29;79.07;100748.88;5042514;28;20030;-77
2021/09/27 02:15:22;;;;;;;9.00;7.30;;;;;;;17.29;79.38;100740.88;5049061;28;20040;-77
2021/09/27 02:17:57;;;;;;;8.18;7.15;;;;;;;17.32;79.17;100740.81;5039419;28;20124;-77
2021/09/27 02:20:37;;;;;;;9.00;7.35;;;;;;;17.35;79.18;100748.72;5028672;28;20071;-78
2021/09/27 02:23:10;;;;;;;8.68;7.47;;;;;;;17.36;78.96;100752.25;5043325;28;20034;-78
2021/09/27 02:25:39;;;;;;;8.38;6.90;;;;;;;17.35;79.15;100751.38;5048474;28;20048;-77
2021/09/27 02:28:11;;;;;;;8.43;7.35;;;;;;;17.35;79.31;100758.53;5047389;28;20530;-78
2021/09/27 02:30:45;;;;;;;8.00;6.63;;;;;;;17.32;79.29;100759.47;5047995;28;20037;-77
2021/09/27 02:33:24;;;;;;;8.93;7.68;;;;;;;17.27;79.56;100751.63;5048582;28;20055;-78
2021/09/27 02:35:57;;;;;;;9.00;7.68;;;;;;;17.23;79.72;100747.28;5043393;28;20479;-78
2021/09/27 02:38:55;;;;;;;8.27;7.38;;;;;;;17.23;79.90;100752.63;5049395;28;20072;-77
2021/09/27 02:41:45;;;;;;;10.55;7.60;;;;;;;17.12;79.88;100752.06;5041119;28;20515;-77
2021/09/27 02:44:11;;;;;;;8.70;7.15;;;;;;;17.16;79.73;100751.06;5041949;28;20036;-77
2021/09/27 02:46:44;;;;;;;10.85;9.48;;;;;;;17.15;79.54;100754.63;5042211;28;20496;-77
2021/09/27 02:49:14;;;;;;;9.25;7.75;;;;;;;17.05;80.24;100755.81;5034016;28;20037;-78
2021/09/27 02:51:45;;;;;;;10.25;8.20;;;;;;;17.00;80.56;100763.09;5049486;28;20032;-78
2021/09/27 02:54:13;;;;;;;9.07;8.18;;;;;;;16.98;80.86;100755.16;5046612;28;20057;-77
2021/09/27 02:56:58;;;;;;;10.85;7.65;;;;;;;16.99;80.94;100748.88;5047856;28;20037;-77
2021/09/27 02:59:53;;;;;;;8.85;7.95;;;;;;;17.01;80.27;100752.38;5049906;28;20419;-78
2021/09/27 03:02:28;;;;;;;8.85;7.95;;;;;;;17.00;80.47;100755.09;5049063;28;20033;-78
2021/09/27 03:05:11;;;;;;;10.52;8.40;;;;;;;16.97;80.78;100756.03;5041654;28;20049;-78
2021/09/27 03:07:51;;;;;;;10.38;9.07;;;;;;;16.93;80.79;100761.53;5047740;28;20028;-77
2021/09/27 03:10:40;;;;;;;8.15;7.32;;;;;;;16.90;80.75;100770.50;5049899;28;20060;-78
2021/09/27 03:13:33;;;;;;;9.70;8.05;;;;;;;16.89;80.61;100776.72;5050381;28;20041;-78
2021/09/27 03:16:14;;;;;;;11.35;8.35;;;;;;;16.85;80.99;100789.28;5040823;28;20108;-78
2021/09/27 03:19:15;;;;;;;10.70;8.40;;;;;;;16.78;81.46;100789.50;5046530;28;20037;-78
2021/09/27 03:21:50;;;;;;;8.15;7.32;;;;;;;16.89;81.04;100799.84;5041674;28;20517;-78
2021/09/27 03:24:36;;;;;;;11.25;10.07;;;;;;;16.99;81.11;100801.34;5046087;28;20090;-78
2021/09/27 03:27:07;;;;;;;9.35;8.27;;;;;;;17.07;80.62;100794.00;5046221;28;20045;-78
2021/09/27 03:29:54;;;;;;;9.70;8.45;;;;;;;17.11;80.43;100805.44;5041955;28;20052;-78
2021/09/27 03:32:19;;;;;;;11.18;8.60;;;;;;;17.19;80.09;100800.78;5046481;28;20033;-78
2021/09/27 03:35:22;;;;;;;11.55;9.35;;;;;;;17.29;80.11;100803.13;5046951;28;20036;-78
2021/09/27 03:37:50;;;;;;;10.77;9.00;;;;;;;17.30;79.93;100796.88;5047949;28;20042;-77
2021/09/27 03:40:46;;;;;;;8.52;7.63;;;;;;;17.30;80.07;100798.66;5047101;28;20044;-78
2021/09/27 03:43:17;;;;;;;10.23;9.07;;;;;;;17.34;80.01;100784.28;5042757;28;20511;-77
2021/09/27 03:46:04;;;;;;;9.63;8.63;;;;;;;17.37;80.13;100783.31;5026741;28;20388;-77
2021/09/27 03:48:34;;;;;;;11.65;8.77;;;;;;;17.36;80.39;100773.59;5044701;28;20056;-78
2021/09/27 03:51:05;;;;;;;11.50;8.73;;;;;;;17.33;80.52;100773.69;5047603;28;20040;-77
2021/09/27 03:53:37;;;;;;;13.48;8.90;;;;;;;17.26;80.73;100778.31;5047056;28;20423;-78
2021/09/27 03:56:22;;;;;;;10.27;9.13;;;;;;;17.29;81.15;100778.22;5046580;28;20048;-78
2021/09/27 03:59:02;;;;;;;8.80;7.13;;;;;;;17.33;80.56;100785.22;5043901;28;20557;-78
2021/09/27 04:01:41;;;;;;;9.23;8.27;;;;;;;17.31;81.14;100792.41;5044777;28;20041;-78
2021/09/27 04:04:45;;;;;;;10.82;8.07;;;;;;;17.35;80.95;100783.41;5041086;28;20038;-77
2021/09/27 04:07:34;;;;;;;12.75;9.10;;;;;;;17.42;80.67;100776.06;5022117;28;20060;-78
2021/09/27 04:10:16;;;;;;;14.55;9.10;;;;;;;17.42;80.47;100768.97;5041753;28;20112;-78
2021/09/27 04:13:02;;;;;;;13.60;9.15;;;;;;;17.44;80.50;100767.09;5044059;28;20060;-78
2021/09/27 04:15:53;;;;;;;10.88;8.75;;;;;;;17.43;80.33;100761.81;5022428;28;20045;-78
2021/09/27 04:18:27;;;;;;;10.02;8.95;;;;;;;17.48;80.32;100774.09;5044646;28;20025;-77
2021/09/27 04:21:07;;;;;;;9.30;8.27;;;;;;;17.47;80.40;100777.66;5039639;28;20407;-77
2021/09/27 04:24:12;;;;;;;9.70;7.60;;;;;;;17.50;80.20;100788.28;5044505;28;20049;-76
2021/09/27 04:27:00;;;;;;;12.50;10.93;;;;;;;17.45;80.87;100800.88;5034312;28;20123;-77
2021/09/27 04:30:10;;;;;;;11.40;9.48;;;;;;;17.43;81.27;100796.50;5031339;28;20034;-77
2021/09/27 04:33:08;;;;;;;12.85;9.63;;;;;;;17.51;82.32;100787.34;5054396;28;20036;-77
2021/09/27 04:36:06;;;;;;;13.27;8.90;;;;;;;17.51;81.70;100779.34;5050650;28;20040;-77
2021/09/27 04:38:33;;;;;;;12.57;9.40;;;;;;;17.49;82.14;100774.97;5046016;28;20167;-77
2021/09/27 04:41:17;;;;;;;12.35;9.25;;;;;;;17.56;82.60;100781.00;5043657;28;20048;-77
2021/09/27 04:44:02;;;;;;;9.88;8.88;;;;;;;17.58;82.50;100764.00;5043296;28;20134;-77
2021/09/27 04:46:43;;;;;;;12.85;9.18;;;;;;;17.56;83.82;100762.31;5017077;28;20056;-77
2021/09/27 04:49:20;;;;;;;12.68;9.00;;;;;;;17.49;84.11;100761.63;5041404;28;20056;-77
2021/09/27 04:52:04;;;;;;;11.50;9.63;;;;;;;17.53;84.48;100780.16;5041953;28;20037;-77
2021/09/27 04:54:54;;;;;;;13.50;12.10;;;;;;;17.59;84.38;100780.91;5030366;28;20038;-76
2021/09/27 04:57:28;;;;;;;14.15;11.23;;;;;;;17.52;85.71;100789.06;5042584;28;20038;-76
2021/09/27 05:00:03;;;;;;;14.00;10.30;;;;;;;17.60;85.18;100793.31;5039365;28;20052;-77
2021/09/27 05:02:50;;;;;;;13.60;10.70;;;;;;;17.67;85.11;100795.75;5044389;28;20041;-77
2021/09/27 05:05:21;;;;;;;15.57;11.23;;;;;;;17.65;85.45;100778.03;5038463;28;20123;-76
2021/09/27 05:08:21;;;;;;;12.80;10.32;;;;;;;17.61;86.26;100773.72;5013558;28;20063;-77
2021/09/27 05:11:10;;;;;;;16.00;13.50;;;;;;;17.63;86.44;100774.53;5039421;28;20079;-77
2021/09/27 05:13:45;;;;;;;13.95;11.63;;;;;;;17.63;86.79;100772.75;5041877;28;20403;-77
2021/09/27 05:16:16;;;;;;;13.25;10.32;;;;;;;17.67;86.68;100771.72;5040616;28;20447;-77
2021/09/27 05:18:53;;;;;;;13.00;10.57;;;;;;;17.67;86.33;100769.03;5043002;28;20179;-77
2021/09/27 05:22:00;;;;;;;17.02;9.98;;;;;;;17.69;86.71;100759.19;5043256;28;20037;-77
2021/09/27 05:24:35;;;;;;;15.88;11.32;;;;;;;17.57;86.63;100764.91;5032178;28;20049;-77
2021/09/27 05:27:22;;;;;;;13.65;10.73;;;;;;;17.51;87.43;100766.00;5038176;28;20045;-76
2021/09/27 05:30:05;;;;;;;17.92;12.10;;;;;;;17.49;88.29;100770.50;5043020;28;20033;-77
2021/09/27 05:32:42;;;;;;;12.57;10.23;;;;;;;17.53;88.56;100766.81;5039023;28;20038;-77
2021/09/27 05:35:10;;;;;;;13.70;10.77;;;;;;;17.55;88.10;100780.09;5041575;28;20033;-77
2021/09/27 05:37:35;;;;;;;18.35;12.65;;;;;;;17.62;88.02;100778.13;5044211;28;20040;-77
2021/09/27 05:40:23;;;;;;;17.88;12.52;;;;;;;17.62;88.32;100768.31;5034922;28;20063;-77
2021/09/27 05:42:54;;;;;;;12.50;10.55;;;;;;;17.56;88.13;100765.84;5038888;28;20488;-77
2021/09/27 05:45:39;;;;;;;12.40;10.27;;;;;;;17.55;87.58;100766.75;5045250;28;20491;-78
2021/09/27 05:48:30;;;;;;;12.85;10.13;;;;;;;17.59;87.42;100770.22;5045777;28;20078;-78
2021/09/27 05:51:18;;;;;;;14.27;11.50;;;;;;;17.56;87.19;100770.31;5042767;28;20029;-77
2021/09/27 05:54:00;;;;;;;12.43;10.68;;;;;;;17.56;86.83;100756.97;5039294;28;20033;-77
2021/09/27 05:56:42;;;;;;;13.80;10.15;;;;;;;17.52;86.93;100754.38;5042597;28;20044;-77
2021/09/27 05:59:26;;;;;;;;;;;;;;;17.41;87.69;100764.53;5040211;28;20037;-78
2021/09/27 06:02:11;;;;;;;16.15;12.13;;;;;;;17.38;87.86;100766.41;5041157;28;19966;-77
2021/09/27 06:04:54;;;;;;;13.25;11.40;;;;;;;17.37;87.73;100775.31;5039919;28;20128;-78
2021/09/27 06:07:53;;;;;;;13.02;11.10;;;;;;;17.45;87.62;100787.53;5042606;28;20037;-77
2021/09/27 06:10:33;;;;;;;14.63;11.32;;;;;;;17.47;87.43;100777.66;5003421;28;20049;-78
2021/09/27 06:13:08;;;;;;;15.77;12.20;;;;;;;17.55;87.19;100768.56;5039931;28;20076;-77
2021/09/27 06:15:55;;;;;;;12.55;10.32;;;;;;;17.64;86.76;100768.28;5043846;28;20037;-77
2021/09/27 06:18:41;;;;;;;15.88;12.10;;;;;;;17.75;86.94;100771.47;5039450;28;20095;-77
2021/09/27 06:21:28;;;;;;;14.60;11.55;;;;;;;17.90;86.48;100765.69;5041137;28;20059;-77
2021/09/27 06:24:29;;;;;;;17.15;13.32;;;;;;;18.01;86.09;100772.47;5040717;28;20068;-77
2021/09/27 06:27:08;;;;;;;16.70;11.95;;;;;;;18.06;85.55;100770.50;5024005;28;20053;-77
2021/09/27 06:29:40;;;;;;;17.05;12.30;;;;;;;18.12;85.14;100771.16;5041719;28;20041;-77
2021/09/27 06:32:24;;;;;;;14.52;11.73;;;;;;;18.17;85.52;100781.72;5037684;28;20038;-76
2021/09/27 06:34:54;;;;;;;17.75;12.38;;;;;;;18.25;85.15;100776.97;5041827;28;20072;-77
2021/09/27 06:37:23;;;;;;;15.57;12.55;;;;;;;18.28;85.16;100776.00;5042837;28;20403;-78
2021/09/27 06:39:50;;;;;;;16.85;12.70;;;;;;;18.28;85.46;100779.53;5043747;28;20033;-77
2021/09/27 06:42:15;;;;;;;15.82;11.90;;;;;;;18.36;85.17;100774.78;5042519;28;20086;-77
2021/09/27 06:44:44;;;;;;;15.98;12.80;;;;;;;18.43;84.93;100780.81;5043458;28;20041;-77
2021/09/27 06:47:11;;;;;;;17.63;13.07;;;;;;;18.52;85.09;100779.63;5043207;28;20056;-76
2021/09/27 06:49:37;;;;;;;24.30;17.85;;;;;;;18.61;84.95;100781.97;5043422;28;20043;-77
2021/09/27 06:52:03;;;;;;;17.02;12.25;;;;;;;18.72;84.61;100778.91;5025547;28;20132;-77
2021/09/27 06:54:29;;;;;;;21.23;13.90;;;;;;;18.78;84.15;100779.59;5042683;28;20037;-77
2021/09/27 06:56:54;;;;;;;20.35;14.05;;;;;;;18.79;83.89;100778.69;5044036;28;20041;-77
2021/09/27 06:59:22;;;;;;;19.48;15.63;;;;;;;18.82;84.54;100783.91;5042724;28;20041;-77
2021/09/27 07:01:49;;;;;;;17.27;13.35;;;;;;;18.91;84.27;100780.00;5043227;28;20125;-77
2021/09/27 07:04:14;;;;;;;16.52;12.63;;;;;;;18.92;83.93;100779.09;5043576;28;20033;-77
2021/09/27 07:06:39;;;;;;;18.52;12.88;;;;;;;18.98;84.29;100778.00;5045942;28;21039;-78
2021/09/27 07:09:05;;;;;;;15.52;12.35;;;;;;;19.09;84.22;100774.91;5038309;28;20420;-78
2021/09/27 07:11:31;;;;;;;15.02;12.45;;;;;;;19.23;83.62;100773.47;5046534;28;20049;-77
2021/09/27 07:13:56;;;;;;;19.58;13.88;;;;;;;19.32;83.35;100779.41;5041190;28;20575;-78
2021/09/27 07:16:22;;;;;;;18.55;14.85;;;;;;;19.38;83.32;100771.13;5034630;28;20037;-77
2021/09/27 07:18:47;;;;;;;19.45;14.45;;;;;;;19.45;83.08;100770.84;5042190;28;20124;-77
2021/09/27 07:21:13;;;;;;;23.55;16.20;;;;;;;19.49;83.09;100769.78;5032881;28;20045;-76
2021/09/27 07:23:39;;;;;;;16.77;13.85;;;;;;;19.54;82.49;100769.59;5040607;28;20029;-77
2021/09/27 07:26:10;;;;;;;14.65;11.73;;;;;;;19.58;82.97;100757.84;5042936;28;20033;-77
2021/09/27 07:28:36;;;;;;;16.60;12.18;;;;;;;19.61;82.71;100752.34;5041910;28;20037;-78
2021/09/27 07:31:01;;;;;;;16.45;12.70;;;;;;;19.61;82.42;100757.72;5042860;28;20040;-78
2021/09/27 07:33:28;;;;;;;15.55;12.40;;;;;;;19.67;82.54;100762.84;5042400;28;20037;-77
2021/09/27 07:35:55;;;;;;;17.67;14.40;;;;;;;19.74;82.09;100762.63;5041978;28;20026;-77
2021/09/27 07:38:22;;;;;;;16.63;13.98;;;;;;;19.80;82.14;100755.19;5043468;28;20434;-78
2021/09/27 07:40:47;;;;;;;20.15;17.35;;;;;;;19.83;82.17;100747.06;5042108;28;20140;-77
2021/09/27 07:43:13;;;;;;;17.45;13.50;;;;;;;19.87;81.58;100747.78;5043281;28;20152;-77
2021/09/27 07:45:38;;;;;;;15.00;12.98;;;;;;;19.81;81.95;100735.53;5015505;28;20408;-78
2021/09/27 07:48:07;;;;;;;22.27;18.65;;;;;;;19.95;82.14;100737.63;5045568;28;20797;-77
2021/09/27 07:50:33;;;;;;;18.08;15.40;;;;;;;20.09;81.40;100727.19;5037881;28;20037;-77
2021/09/27 07:52:58;;;;;;;18.88;16.17;;;;;;;20.21;81.33;100731.16;5037154;28;20037;-78
2021/09/27 07:55:24;;;;;;;17.95;13.65;;;;;;;20.32;80.27;100730.69;5044829;28;20089;-78
2021/09/27 07:57:49;;;;;;;16.98;14.43;;;;;;;20.40;80.56;100725.88;5042740;28;20381;-77
2021/09/27 08:00:19;;;;;;;20.02;16.75;;;;;;;20.48;80.25;100733.56;5048015;28;20056;-77
2021/09/27 08:02:45;;;;;;;20.85;16.70;;;;;;;20.55;80.00;100725.22;5045250;28;20124;-77
2021/09/27 08:05:18;;;;;;;17.10;13.98;;;;;;;20.63;79.09;100724.88;5022580;28;20163;-78
2021/09/27 08:07:43;;;;;;;18.75;13.30;;;;;;;20.67;79.14;100723.81;5027586;28;20132;-77
2021/09/27 08:10:10;;;;;;;15.43;12.63;;;;;;;20.66;78.72;100734.59;5048601;28;20076;-78
2021/09/27 08:12:37;;;;;;;14.70;11.98;;;;;;;20.63;78.64;100742.78;5045038;28;20475;-77
2021/09/27 08:15:09;;;;;;;14.73;12.10;;;;;;;20.73;78.20;100738.75;5047328;28;20063;-77
2021/09/27 08:17:34;;;;;;;13.38;11.27;;;;;;;20.83;78.23;100741.88;5045102;28;20029;-77
2021/09/27 08:20:02;;;;;;;13.77;11.55;;;;;;;20.91;77.98;100743.28;5021764;28;20033;-77
2021/09/27 08:22:27;;;;;;;20.38;12.05;;;;;;;21.01;77.54;100747.31;5043938;28;20079;-78
2021/09/27 08:24:52;;;;;;;14.00;11.43;;;;;;;21.10;76.47;100747.81;5048211;28;20033;-77
2021/09/27 08:27:18;;;;;;;13.48;10.60;;;;;;;21.13;76.64;100756.56;5047314;28;20052;-78
2021/09/27 08:29:43;;;;;;;12.75;10.15;;;;;;;21.20;76.00;100771.47;5047392;28;20495;-78
2021/09/27 08:32:09;;;;;;;13.73;10.73;;;;;;;21.26;75.75;100767.63;5048922;28;20056;-78
2021/09/27 08:34:34;;;;;;;13.45;10.93;;;;;;;21.31;75.37;100770.97;5020924;28;20043;-77
2021/09/27 08:36:59;;;;;;;13.13;11.45;;;;;;;21.40;74.49;100767.84;5030853;28;20127;-78
2021/09/27 08:39:25;;;;;;;12.30;10.02;;;;;;;21.55;74.33;100770.78;5045517;28;20079;-77
2021/09/27 08:42:01;;;;;;;13.23;10.07;;;;;;;21.60;74.15;100768.75;5048195;28;20029;-77
2021/09/27 08:44:54;;;;;;;14.27;10.40;;;;;;;21.58;73.46;100759.88;5036546;28;20063;-77
2021/09/27 08:47:35;;;;;;;14.48;11.13;;;;;;;21.40;74.41;100770.53;5043090;28;20037;-77
2021/09/27 08:50:06;;;;;;;12.85;10.20;;;;;;;21.36;74.58;100771.63;5029299;28;20033;-77
2021/09/27 08:52:36;;;;;;;14.20;10.77;;;;;;;21.33;74.52;100771.75;5039079;28;20408;-77
2021/09/27 08:55:07;;;;;;;13.15;9.30;;;;;;;21.53;74.15;100775.34;5045707;28;20079;-77
2021/09/27 08:57:56;;;;;;;10.88;9.05;;;;;;;21.52;73.48;100771.78;5030213;28;20032;-77
2021/09/27 09:00:38;;;;;;;10.90;9.15;;;;;;;21.60;72.91;100774.09;5044805;28;20073;-77
2021/09/27 09:03:07;;;;;;;15.70;12.48;;;;;;;21.56;73.45;100780.56;5031420;28;20500;-77
2021/09/27 09:05:40;;;;;;;11.65;9.70;;;;;;;21.64;73.54;100781.94;5015543;28;20087;-77
2021/09/27 09:08:24;;;;;;;12.18;10.48;;;;;;;21.56;72.57;100784.13;5047255;28;20074;-77
2021/09/27 09:11:25;;;;;;;17.38;12.50;;;;;;;21.32;72.43;100786.09;5045668;28;20450;-76
2021/09/27 09:14:10;;;;;;;12.43;9.37;;;;;;;21.28;73.24;100791.72;5017251;28;20045;-77
2021/09/27 09:16:38;;;;;;;13.38;10.88;;;;;;;21.18;73.19;100791.25;5042032;28;20372;-77
2021/09/27 09:19:10;;;;;;;11.27;8.75;;;;;;;21.14;73.49;100792.34;5045667;28;20077;-77
2021/09/27 09:21:44;;;;;;;10.48;8.50;;;;;;;21.27;74.25;100788.13;5043064;28;20037;-77
2021/09/27 09:24:23;;;;;;;10.50;8.75;;;;;;;21.55;72.73;100784.19;5037012;28;20036;-77
2021/09/27 09:26:51;;;;;;;9.38;8.35;;;;;;;21.77;72.20;100776.84;5031698;28;20090;-77
2021/09/27 09:29:23;;;;;;;11.20;9.20;;;;;;;21.85;71.16;100777.34;5046097;28;20045;-78
2021/09/27 09:31:52;;;;;;;10.68;8.80;;;;;;;22.00;71.01;100769.47;5034343;28;20409;-77
2021/09/27 09:34:18;;;;;;;9.35;7.68;;;;;;;22.17;70.69;100774.00;5045020;28;20110;-77
2021/09/27 09:36:45;;;;;;;8.40;6.80;;;;;;;22.33;68.75;100774.13;5044098;28;20507;-78
2021/09/27 09:39:24;;;;;;;12.40;9.07;;;;;;;22.41;67.49;100782.66;5044896;28;20033;-77
2021/09/27 09:41:55;;;;;;;9.68;8.65;;;;;;;22.38;66.82;100781.00;5044520;28;20034;-77
2021/09/27 09:44:37;;;;;;;9.43;7.07;;;;;;;22.50;67.40;100774.97;5043504;28;20033;-77
2021/09/27 09:47:06;;;;;;;9.40;7.25;;;;;;;22.57;66.24;100772.84;5015008;28;20105;-77
2021/09/27 09:49:49;;;;;;;9.48;7.55;;;;;;;22.67;66.17;100768.72;5045334;28;20143;-78
2021/09/27 09:52:25;;;;;;;9.52;7.32;;;;;;;22.65;66.26;100767.06;5036317;28;20036;-78
2021/09/27 09:54:53;;;;;;;9.73;7.05;;;;;;;22.51;66.26;100767.78;5039052;28;20034;-78
2021/09/27 09:57:33;;;;;;;7.50;6.53;;;;;;;22.66;66.00;100767.00;5029343;28;20044;-78
2021/09/27 10:00:33;;;;;;;8.65;6.43;;;;;;;22.80;65.97;100770.78;5041235;28;20041;-77
2021/09/27 10:02:59;;;;;;;9.15;6.90;;;;;;;22.89;66.28;100770.25;5040785;28;20126;-77
2021/09/27 10:05:30;;;;;;;8.38;6.80;;;;;;;23.02;65.50;100766.00;5028485;28;20036;-77
2021/09/27 10:07:57;;;;;;;9.20;6.57;;;;;;;23.01;64.23;100764.25;5040674;28;20039;-77
2021/09/27 10:10:30;;;;;;;7.43;6.15;;;;;;;23.06;65.05;100769.41;5045781;28;20045;-78
2021/09/27 10:12:59;;;;;;;9.68;7.75;;;;;;;23.09;65.30;100772.78;5025432;28;20558;-78
2021/09/27 10:15:33;;;;;;;8.88;7.22;;;;;;;23.08;64.59;100772.84;5045072;28;20434;-78
2021/09/27 10:18:05;;;;;;;11.10;7.85;;;;;;;23.14;64.54;100773.41;5042403;28;20087;-77
2021/09/27 10:20:36;;;;;;;;;;;;;;;23.09;63.51;100764.72;5038970;28;20136;-78
2021/09/27 10:23:04;;;;;;;7.78;6.78;;;;;;;23.30;63.74;100759.97;5039219;28;19970;-77
2021/09/27 10:25:33;;;;;;;12.60;11.30;;;;;;;23.43;63.59;100760.16;5045293;28;20063;-77
2021/09/27 10:28:00;;;;;;;8.02;6.60;;;;;;;23.51;63.11;100762.41;5042909;28;20063;-77
2021/09/27 10:30:53;;;;;;;10.88;7.85;;;;;;;23.43;63.23;100762.00;5046145;28;20489;-77
2021/09/27 10:33:29;;;;;;;8.10;7.20;;;;;;;23.38;63.25;100770.31;5038081;28;20034;-77
2021/09/27 10:36:19;;;;;;;7.65;6.53;;;;;;;23.37;64.00;100766.75;5040452;28;20041;-77
2021/09/27 10:38:53;;;;;;;7.72;6.43;;;;;;;23.27;63.36;100778.13;5039084;28;20467;-78
2021/09/27 10:41:32;;;;;;;8.02;6.70;;;;;;;23.21;64.44;100775.75;5039885;28;20056;-78
2021/09/27 10:44:03;;;;;;;9.77;8.45;;;;;;;23.35;63.87;100773.19;5043045;28;20044;-79
2021/09/27 10:46:39;;;;;;;15.35;7.10;;;;;;;23.31;62.76;100782.38;5037365;28;20033;-78
2021/09/27 10:49:13;;;;;;;10.27;6.72;;;;;;;23.52;62.93;100786.56;5028904;28;20546;-80
2021/09/27 10:51:40;;;;;;;10.13;8.00;;;;;;;23.63;62.25;100781.47;5013534;28;20408;-79
2021/09/27 10:54:06;;;;;;;7.93;6.28;;;;;;;23.82;61.36;100783.13;5045756;28;20037;-79
2021/09/27 10:56:41;;;;;;;9.23;8.20;;;;;;;24.10;59.54;100778.81;5032378;28;20049;-79
2021/09/27 10:59:12;;;;;;;7.32;5.38;;;;;;;24.35;59.45;100773.72;5022279;28;20472;-79
2021/09/27 11:01:43;;;;;;;8.48;6.30;;;;;;;24.59;58.18;100775.94;5043828;28;20507;-79
2021/09/27 11:04:16;;;;;;;11.85;7.47;;;;;;;24.62;57.02;100775.75;5034037;28;20467;-79
2021/09/27 11:06:49;;;;;;;7.95;6.68;;;;;;;24.67;57.53;100774.50;5042594;28;20116;-79
2021/09/27 11:09:28;;;;;;;6.65;5.93;;;;;;;24.64;57.57;100769.28;5044856;28;20047;-79
2021/09/27 11:12:08;;;;;;;7.80;5.65;;;;;;;24.43;56.95;100766.03;5013433;28;20037;-79
2021/09/27 11:14:38;;;;;;;7.25;5.07;;;;;;;24.55;57.25;100764.47;5025195;28;20078;-79
2021/09/27 11:17:06;;;;;;;8.50;6.53;;;;;;;24.66;57.18;100753.00;5034171;28;20614;-79
2021/09/27 11:19:34;;;;;;;7.72;5.00;;;;;;;24.49;57.32;100754.03;5041239;28;20029;-79
2021/09/27 11:22:18;;;;;;;7.90;5.53;;;;;;;24.38;57.94;100751.09;5044088;28;20036;-79
2021/09/27 11:24:46;;;;;;;6.80;5.28;;;;;;;24.36;57.96;100748.47;5029791;28;20041;-80
2021/09/27 11:27:27;;;;;;;5.75;5.15;;;;;;;24.29;57.86;100747.13;5045016;28;20032;-79
2021/09/27 11:29:55;;;;;;;6.80;5.63;;;;;;;24.36;58.34;100742.22;5043986;28;20045;-79
2021/09/27 11:32:30;;;;;;;6.00;5.40;;;;;;;24.43;58.05;100748.97;5042169;28;20033;-79
2021/09/27 11:34:59;;;;;;;8.80;6.28;;;;;;;24.45;58.23;100739.88;5048872;28;20045;-79
2021/09/27 11:37:30;;;;;;;9.00;7.22;;;;;;;24.36;58.03;100744.91;5045674;28;20496;-79
2021/09/27 11:40:01;;;;;;;6.43;5.35;;;;;;;24.45;57.08;100739.88;5041630;28;20084;-79
2021/09/27 11:42:47;;;;;;;8.52;6.82;;;;;;;24.64;57.08;100736.91;5041515;28;20041;-79
2021/09/27 11:45:36;;;;;;;14.25;5.25;;;;;;;24.72;56.39;100733.72;5045203;28;20050;-78
2021/09/27 11:48:30;;;;;;;7.15;4.90;;;;;;;24.69;56.46;100729.41;5044874;28;20030;-79
2021/09/27 11:51:04;;;;;;;5.32;4.55;;;;;;;24.55;57.23;100725.78;5034657;28;20047;-79
2021/09/27 11:53:36;;;;;;;7.78;5.47;;;;;;;24.34;57.83;100734.22;5045921;28;20123;-79
2021/09/27 11:56:21;;;;;;;8.65;6.75;;;;;;;24.40;58.62;100728.44;5038382;28;20447;-78
2021/09/27 11:58:56;;;;;;;7.95;5.78;;;;;;;24.64;57.24;100725.25;5042939;28;20042;-78